Time;durP1;ratioP1;P1;durP2;ratioP2;P2;SDS_P1;SDS_P2;PMS_P1;PMS_P2;Temp;Humidity;BMP_temperature;BMP_pressure;BME280_temperature;BME280_humidity;BME280_pressure;Samples;Min_cycle;Max_cycle;Signal;HPM_P1;HPM_P2
2021/06/09 00:01:06;;;;;;;4.03;2.85;;;23.70;94.00;;;;;;5114019;28;20531;-70
2021/06/09 00:03:32;;;;;;;5.22;3.20;;;23.70;94.20;;;;;;5113307;28;20024;-73
2021/06/09 00:05:58;;;;;;;3.85;2.83;;;23.70;93.90;;;;;;5114560;28;20091;-74
2021/06/09 00:08:24;;;;;;;3.10;2.80;;;23.60;93.80;;;;;;5114763;28;20023;-74
2021/06/09 00:10:55;;;;;;;3.22;2.80;;;23.60;93.80;;;;;;5114099;28;20435;-74
2021/06/09 00:13:27;;;;;;;3.42;3.10;;;23.60;93.80;;;;;;5114465;28;20030;-74
2021/06/09 00:15:54;;;;;;;3.28;2.95;;;23.60;93.80;;;;;;5114528;28;20034;-73
2021/06/09 00:18:19;;;;;;;3.83;3.30;;;23.60;93.90;;;;;;5114044;28;20028;-73
2021/06/09 00:20:45;;;;;;;3.15;2.75;;;23.60;93.90;;;;;;5113949;28;20027;-73
2021/06/09 00:23:16;;;;;;;3.00;2.80;;;23.60;93.90;;;;;;5114240;28;20042;-73
2021/06/09 00:25:47;;;;;;;3.63;2.60;;;23.60;94.00;;;;;;5113579;28;20476;-74
2021/06/09 00:28:12;;;;;;;3.53;3.22;;;23.60;94.00;;;;;;5113961;28;20391;-74
2021/06/09 00:30:38;;;;;;;3.33;2.85;;;23.60;93.90;;;;;;5113262;28;20043;-74
2021/06/09 00:33:04;;;;;;;3.28;2.72;;;23.50;93.90;;;;;;5113179;28;20031;-73
2021/06/09 00:35:30;;;;;;;3.45;3.10;;;23.60;94.00;;;;;;5113863;27;20110;-73
2021/06/09 00:37:56;;;;;;;3.97;3.05;;;23.50;93.90;;;;;;5114183;28;20376;-73
2021/06/09 00:40:22;;;;;;;3.20;2.90;;;23.50;93.90;;;;;;5114377;28;20019;-71
2021/06/09 00:43:06;;;;;;;3.60;3.30;;;23.50;93.90;;;;;;5113562;28;20114;-71
2021/06/09 00:45:33;;;;;;;3.13;2.83;;;23.40;93.80;;;;;;5113502;28;20020;-70
2021/06/09 00:47:59;;;;;;;3.30;3.00;;;23.50;93.90;;;;;;5113554;28;20475;-71
2021/06/09 00:50:25;;;;;;;3.60;3.30;;;23.50;93.90;;;;;;5113859;28;20114;-71
2021/06/09 00:52:51;;;;;;;3.00;2.63;;;23.40;93.90;;;;;;5113139;28;20027;-71
2021/06/09 00:55:16;;;;;;;3.60;3.20;;;23.40;93.90;;;;;;5113070;28;20492;-72
2021/06/09 00:57:43;;;;;;;3.03;2.55;;;23.40;93.90;;;;;;5112976;28;20023;-70
2021/06/09 01:00:10;;;;;;;3.47;2.80;;;23.40;94.20;;;;;;5113175;28;20034;-71
2021/06/09 01:02:36;;;;;;;3.70;2.90;;;23.40;93.80;;;;;;5113101;28;20027;-70
2021/06/09 01:05:03;;;;;;;3.28;2.97;;;23.40;93.90;;;;;;5113339;28;20024;-70
2021/06/09 01:07:29;;;;;;;4.32;3.20;;;23.40;93.90;;;;;;5112672;28;20481;-71
2021/06/09 01:09:54;;;;;;;3.50;3.03;;;23.40;93.90;;;;;;5113380;28;20027;-71
2021/06/09 01:12:21;;;;;;;4.25;3.35;;;23.30;93.90;;;;;;5113231;28;20032;-70
2021/06/09 01:14:46;;;;;;;3.28;2.97;;;23.40;93.80;;;;;;5113027;28;20059;-71
2021/06/09 01:17:12;;;;;;;3.08;2.78;;;23.30;93.90;;;;;;5113189;28;20054;-72
2021/06/09 01:19:38;;;;;;;3.22;2.92;;;23.30;93.90;;;;;;5112830;28;20111;-70
2021/06/09 01:22:04;;;;;;;3.80;3.35;;;23.30;93.90;;;;;;5113005;28;20499;-73
2021/06/09 01:24:30;;;;;;;3.25;2.95;;;23.30;93.80;;;;;;5112634;28;20097;-72
2021/06/09 01:26:56;;;;;;;3.50;3.03;;;23.30;93.90;;;;;;5112988;28;20475;-73
2021/06/09 01:29:21;;;;;;;3.30;3.00;;;23.30;93.80;;;;;;5112510;28;20027;-74
2021/06/09 01:31:47;;;;;;;3.78;3.28;;;23.30;93.90;;;;;;5112454;28;20016;-73
2021/06/09 01:34:13;;;;;;;3.60;3.30;;;23.30;93.90;;;;;;5112835;28;20034;-73
2021/06/09 01:36:40;;;;;;;3.30;3.00;;;23.30;93.80;;;;;;5111894;28;20117;-73
2021/06/09 01:39:18;;;;;;;3.80;3.45;;;23.30;93.80;;;;;;5112672;28;20059;-72
2021/06/09 01:41:45;;;;;;;3.80;3.40;;;23.20;93.80;;;;;;5112545;28;20379;-74
2021/06/09 01:44:11;;;;;;;3.72;3.40;;;23.30;93.90;;;;;;5112354;28;20079;-73
2021/06/09 01:46:37;;;;;;;3.58;3.05;;;23.20;93.80;;;;;;5112318;28;20028;-73
2021/06/09 01:49:07;;;;;;;3.88;3.47;;;23.20;93.80;;;;;;5112514;28;20031;-73
2021/06/09 01:51:34;;;;;;;3.83;3.53;;;23.20;93.80;;;;;;5110698;28;20042;-72
2021/06/09 01:54:04;;;;;;;3.35;3.03;;;23.20;93.80;;;;;;5111982;28;20487;-73
2021/06/09 01:56:30;;;;;;;4.00;3.50;;;23.20;93.80;;;;;;5111668;28;20497;-73
2021/06/09 01:58:56;;;;;;;3.85;3.22;;;23.20;93.80;;;;;;5111987;28;20098;-72
2021/06/09 02:01:22;;;;;;;3.67;2.95;;;23.20;93.80;;;;;;5112063;28;20027;-73
2021/06/09 02:03:48;;;;;;;4.00;3.60;;;23.20;93.80;;;;;;5112070;28;20487;-73
2021/06/09 02:06:14;;;;;;;3.45;2.95;;;23.20;93.80;;;;;;5111923;28;20019;-73
2021/06/09 02:08:39;;;;;;;4.40;3.20;;;23.20;93.80;;;;;;5112087;28;20544;-73
2021/06/09 02:11:05;;;;;;;4.53;3.22;;;23.10;93.80;;;;;;5112051;28;20028;-71
2021/06/09 02:13:31;;;;;;;3.53;3.05;;;23.10;93.80;;;;;;5111948;28;20024;-73
2021/06/09 02:15:57;;;;;;;4.68;3.53;;;23.10;93.80;;;;;;5112342;28;20432;-71
2021/06/09 02:18:26;;;;;;;3.65;3.30;;;23.10;93.80;;;;;;5112249;28;20031;-73
2021/06/09 02:20:57;;;;;;;4.07;3.70;;;23.10;93.80;;;;;;5112243;28;20035;-73
2021/06/09 02:23:27;;;;;;;3.80;3.40;;;23.10;93.80;;;;;;5111128;28;20090;-73
2021/06/09 02:25:56;;;;;;;3.85;3.50;;;23.10;93.80;;;;;;5111785;28;20024;-72
2021/06/09 02:28:24;;;;;;;3.67;3.33;;;23.10;93.80;;;;;;5111984;28;20478;-72
2021/06/09 02:30:51;;;;;;;3.97;3.58;;;23.10;93.80;;;;;;5111563;28;20392;-72
2021/06/09 02:33:21;;;;;;;3.53;3.22;;;23.00;93.80;;;;;;5111005;28;20023;-73
2021/06/09 02:35:47;;;;;;;3.97;3.63;;;23.00;93.80;;;;;;5111691;28;20135;-73
2021/06/09 02:38:15;;;;;;;3.67;3.38;;;23.00;93.80;;;;;;5111867;28;20028;-74
2021/06/09 02:40:42;;;;;;;5.25;3.45;;;23.00;93.80;;;;;;5111528;28;20115;-71
2021/06/09 02:43:09;;;;;;;3.65;3.33;;;23.00;93.70;;;;;;5111859;28;20028;-72
2021/06/09 02:45:35;;;;;;;3.90;3.13;;;23.00;93.80;;;;;;5111606;28;20487;-72
2021/06/09 02:48:07;;;;;;;4.47;3.65;;;23.00;93.80;;;;;;5111686;28;20383;-72
2021/06/09 02:50:33;;;;;;;3.75;3.45;;;23.00;93.70;;;;;;5111178;28;20028;-72
2021/06/09 02:53:14;;;;;;;3.80;3.50;;;23.00;93.70;;;;;;5111839;28;20080;-70
2021/06/09 02:55:59;;;;;;;3.97;3.65;;;23.00;93.70;;;;;;5111226;28;20024;-71
2021/06/09 02:58:47;;;;;;;3.67;3.38;;;22.90;93.70;;;;;;5111908;28;20039;-70
2021/06/09 03:01:30;;;;;;;3.33;3.03;;;22.90;93.70;;;;;;5099149;28;20127;-70
2021/06/09 03:04:17;;;;;;;4.72;3.55;;;22.90;93.70;;;;;;5111325;28;20020;-70
2021/06/09 03:06:55;;;;;;;4.75;4.00;;;22.90;93.60;;;;;;5111443;28;20075;-70
2021/06/09 03:09:40;;;;;;;4.15;3.75;;;22.90;93.60;;;;;;5111263;28;20023;-70
2021/06/09 03:12:14;;;;;;;;;;;22.90;93.70;;;;;;5111968;28;20425;-71
2021/06/09 03:17:38;;;;;;;3.90;3.50;;;22.90;93.70;;;;;;5111549;28;20038;-71
2021/06/09 03:20:49;;;;;;;5.32;3.72;;;22.80;93.70;;;;;;5111660;28;20028;-70
2021/06/09 03:23:52;;;;;;;4.95;3.60;;;22.80;93.60;;;;;;5111471;28;20027;-70
2021/06/09 03:26:39;;;;;;;3.70;3.40;;;22.80;93.60;;;;;;5111133;28;20084;-71
2021/06/09 03:29:35;;;;;;;4.20;3.83;;;22.80;93.60;;;;;;5111666;28;20024;-73
2021/06/09 03:32:06;;;;;;;4.28;3.88;;;22.80;93.60;;;;;;5111624;28;20046;-72
2021/06/09 03:35:02;;;;;;;3.28;2.97;;;22.80;93.60;;;;;;5111251;28;20107;-70
2021/06/09 03:37:31;;;;;;;3.92;3.60;;;22.80;93.60;;;;;;5111191;28;20016;-71
2021/06/09 03:39:58;;;;;;;3.70;3.40;;;22.80;93.60;;;;;;5113856;28;20023;-72
2021/06/09 03:42:31;;;;;;;4.18;3.78;;;22.80;93.50;;;;;;5114880;28;20078;-73
2021/06/09 03:44:59;;;;;;;3.80;3.38;;;22.80;93.60;;;;;;5115154;27;20080;-71
2021/06/09 03:47:26;;;;;;;3.78;3.47;;;22.70;93.50;;;;;;5115272;28;20101;-72
2021/06/09 03:49:53;;;;;;;4.95;4.07;;;22.80;93.60;;;;;;5115145;28;20031;-71
2021/06/09 03:52:22;;;;;;;5.13;3.33;;;22.80;93.60;;;;;;5114871;28;20028;-73
2021/06/09 03:54:54;;;;;;;3.63;3.33;;;22.70;93.50;;;;;;5114449;28;20463;-72
2021/06/09 03:57:21;;;;;;;4.10;3.13;;;22.70;93.60;;;;;;5114815;28;20076;-73
2021/06/09 03:59:49;;;;;;;3.90;3.60;;;22.70;93.50;;;;;;5114669;28;20080;-72
2021/06/09 04:02:16;;;;;;;3.53;3.22;;;22.70;93.50;;;;;;5113541;28;20102;-73
2021/06/09 04:04:43;;;;;;;3.85;3.50;;;22.70;93.50;;;;;;5114413;28;20027;-73
2021/06/09 04:07:10;;;;;;;4.20;3.70;;;22.70;93.50;;;;;;5113181;28;20020;-73
2021/06/09 04:09:38;;;;;;;3.67;3.28;;;22.70;93.50;;;;;;5114030;28;20109;-73
2021/06/09 04:12:07;;;;;;;4.00;3.60;;;22.70;93.50;;;;;;5114353;28;20547;-73
2021/06/09 04:14:46;;;;;;;3.80;3.50;;;22.70;93.50;;;;;;5114152;28;20380;-73
2021/06/09 04:17:13;;;;;;;4.20;3.80;;;22.70;93.40;;;;;;5114423;28;20023;-74
2021/06/09 04:19:45;;;;;;;4.20;3.67;;;22.70;93.40;;;;;;5113325;28;20063;-73
2021/06/09 04:22:11;;;;;;;4.45;3.67;;;22.70;93.40;;;;;;5113655;28;20035;-73
2021/06/09 04:24:39;;;;;;;3.60;3.30;;;22.70;93.40;;;;;;5113896;28;20028;-73
2021/06/09 04:27:14;;;;;;;3.63;3.33;;;22.70;93.40;;;;;;5113789;28;20023;-73
2021/06/09 04:29:42;;;;;;;4.43;3.97;;;22.70;93.30;;;;;;5113874;28;20059;-73
2021/06/09 04:32:08;;;;;;;4.18;3.58;;;22.70;93.30;;;;;;5113663;28;20069;-74
2021/06/09 04:34:45;;;;;;;3.88;3.33;;;22.70;93.30;;;;;;5112560;28;20119;-73
2021/06/09 04:37:13;;;;;;;3.78;3.47;;;22.70;93.30;;;;;;5113952;28;20019;-74
2021/06/09 04:39:39;;;;;;;3.60;3.30;;;22.70;93.30;;;;;;5113701;28;20072;-74
2021/06/09 04:42:06;;;;;;;4.65;3.53;;;22.70;93.20;;;;;;5112561;28;20023;-73
2021/06/09 04:44:33;;;;;;;3.40;3.10;;;22.70;93.20;;;;;;5113456;28;20373;-73
2021/06/09 04:46:59;;;;;;;4.35;3.10;;;22.70;93.00;;;;;;5113823;28;20019;-73
2021/06/09 04:49:37;;;;;;;3.78;3.30;;;22.70;93.00;;;;;;5113609;28;20036;-73
2021/06/09 04:52:04;;;;;;;3.38;2.78;;;22.80;92.90;;;;;;5113683;28;20372;-73
2021/06/09 04:54:30;;;;;;;3.22;2.92;;;22.80;92.90;;;;;;5113325;28;20015;-72
2021/06/09 04:56:57;;;;;;;3.28;2.85;;;22.80;92.90;;;;;;5113681;28;20038;-73
2021/06/09 04:59:23;;;;;;;3.33;2.97;;;22.80;92.90;;;;;;5113866;28;20383;-74
2021/06/09 05:01:49;;;;;;;3.97;3.08;;;22.80;92.80;;;;;;5112979;28;20476;-73
2021/06/09 05:04:15;;;;;;;3.58;2.90;;;22.90;92.70;;;;;;5113159;28;20114;-72
2021/06/09 05:06:40;;;;;;;3.63;3.33;;;22.90;92.60;;;;;;5113156;28;20055;-72
2021/06/09 05:09:09;;;;;;;3.03;2.72;;;22.90;92.50;;;;;;5113376;28;20039;-74
2021/06/09 05:11:43;;;;;;;3.55;3.17;;;22.90;92.40;;;;;;5111682;28;20513;-74
2021/06/09 05:14:14;;;;;;;3.53;3.22;;;22.90;92.30;;;;;;5113234;28;20020;-74
2021/06/09 05:16:42;;;;;;;3.35;2.85;;;23.00;92.70;;;;;;5112608;28;20032;-73
2021/06/09 05:19:09;;;;;;;3.60;3.05;;;23.00;92.40;;;;;;5113044;28;20110;-74
2021/06/09 05:21:39;;;;;;;3.25;2.95;;;23.00;92.40;;;;;;5112115;28;20463;-73
2021/06/09 05:24:08;;;;;;;3.05;2.75;;;23.10;92.30;;;;;;5112658;28;20425;-74
2021/06/09 05:26:33;;;;;;;3.42;2.67;;;23.10;92.30;;;;;;5112567;28;20107;-73
2021/06/09 05:29:06;;;;;;;3.00;2.58;;;23.20;92.30;;;;;;5112624;28;20102;-73
2021/06/09 05:31:34;;;;;;;3.10;2.88;;;23.10;92.30;;;;;;5112590;27;20503;-71
2021/06/09 05:34:01;;;;;;;2.85;2.55;;;23.20;92.50;;;;;;5112820;28;20104;-71
2021/06/09 05:36:28;;;;;;;3.63;2.70;;;23.20;92.20;;;;;;5113228;28;20019;-70
2021/06/09 05:38:57;;;;;;;3.05;2.80;;;23.20;92.10;;;;;;5113037;28;20070;-70
2021/06/09 05:41:25;;;;;;;2.95;2.60;;;23.20;92.10;;;;;;5112908;28;20027;-70
2021/06/09 05:43:51;;;;;;;2.40;2.15;;;23.20;92.10;;;;;;5112607;28;20024;-70
2021/06/09 05:46:18;;;;;;;2.60;2.40;;;23.20;92.10;;;;;;5112591;28;20035;-69
2021/06/09 05:48:45;;;;;;;2.55;2.35;;;23.30;92.20;;;;;;5112205;28;20099;-70
2021/06/09 05:51:14;;;;;;;3.45;2.38;;;23.30;92.20;;;;;;5112265;28;20483;-74
2021/06/09 05:53:41;;;;;;;3.53;2.30;;;23.30;92.20;;;;;;5112264;28;20031;-70
2021/06/09 05:56:08;;;;;;;2.72;2.53;;;23.30;92.10;;;;;;5112458;28;20106;-71
2021/06/09 05:58:34;;;;;;;2.40;2.20;;;23.30;92.10;;;;;;5112170;28;20053;-71
2021/06/09 06:01:04;;;;;;;2.50;2.30;;;23.40;92.10;;;;;;5111923;28;20024;-71
2021/06/09 06:03:30;;;;;;;2.13;1.88;;;23.40;92.10;;;;;;5111660;28;20115;-71
2021/06/09 06:06:01;;;;;;;2.78;2.15;;;23.40;92.00;;;;;;5112469;28;20059;-74
2021/06/09 06:08:27;;;;;;;2.70;2.25;;;23.40;92.00;;;;;;5111420;28;20378;-73
2021/06/09 06:11:00;;;;;;;2.65;2.30;;;23.40;91.90;;;;;;5112407;28;20074;-74
2021/06/09 06:13:26;;;;;;;5.47;4.38;;;23.50;92.00;;;;;;5112461;28;20031;-72
2021/06/09 06:15:56;;;;;;;11.10;9.95;;;23.50;92.90;;;;;;5112030;28;20091;-68
2021/06/09 06:18:39;;;;;;;15.77;13.63;;;23.30;93.80;;;;;;5112261;28;20058;-69
2021/06/09 06:21:07;;;;;;;18.05;14.88;;;23.10;93.80;;;;;;5111620;28;20063;-71
2021/06/09 06:23:34;;;;;;;18.80;14.77;;;23.00;93.90;;;;;;5110482;28;20051;-68
2021/06/09 06:26:00;;;;;;;19.85;15.00;;;22.90;93.90;;;;;;5112038;28;20023;-68
2021/06/09 06:28:25;;;;;;;20.95;15.45;;;22.90;94.00;;;;;;5112115;28;20117;-72
2021/06/09 06:30:53;;;;;;;17.77;13.63;;;22.80;93.90;;;;;;5110730;28;20043;-73
2021/06/09 06:33:23;;;;;;;14.40;12.77;;;22.90;93.80;;;;;;5110594;28;20095;-72
2021/06/09 06:35:50;;;;;;;15.88;13.43;;;22.80;93.80;;;;;;5111338;28;20035;-72
2021/06/09 06:38:18;;;;;;;15.43;12.70;;;22.90;93.70;;;;;;5111860;28;20451;-72
2021/06/09 06:40:44;;;;;;;17.60;13.02;;;22.80;93.90;;;;;;5109585;28;20032;-72
2021/06/09 06:43:10;;;;;;;15.82;11.80;;;22.90;94.10;;;;;;5110242;28;20486;-71
2021/06/09 06:45:38;;;;;;;14.90;10.90;;;22.80;93.80;;;;;;5109872;28;20051;-72
2021/06/09 06:48:04;;;;;;;11.05;9.88;;;22.80;93.70;;;;;;5108338;28;20389;-72
2021/06/09 06:50:30;;;;;;;12.45;9.95;;;22.80;93.50;;;;;;5110101;28;20036;-73
2021/06/09 06:52:57;;;;;;;12.85;9.32;;;22.80;93.60;;;;;;5111102;28;20027;-72
2021/06/09 06:55:24;;;;;;;11.65;8.60;;;22.80;93.60;;;;;;5111620;28;20479;-72
2021/06/09 06:57:50;;;;;;;10.07;8.32;;;22.80;93.60;;;;;;5110701;28;20024;-72
2021/06/09 07:00:19;;;;;;;13.80;8.30;;;22.80;93.50;;;;;;5110179;28;20102;-64
2021/06/09 07:02:51;;;;;;;10.38;6.38;;;22.90;93.40;;;;;;5125327;28;20015;-69
2021/06/09 07:05:18;;;;;;;8.02;6.53;;;23.20;93.10;;;;;;5111211;28;20070;-67
2021/06/09 07:07:44;;;;;;;9.23;6.50;;;23.30;92.90;;;;;;5110340;28;20028;-67
2021/06/09 07:10:12;;;;;;;8.07;5.97;;;23.40;92.50;;;;;;5111291;28;20034;-65
2021/06/09 07:12:39;;;;;;;9.63;6.03;;;23.40;92.30;;;;;;5111365;28;20028;-66
2021/06/09 07:15:08;;;;;;;7.25;5.10;;;23.60;92.20;;;;;;5115570;28;20027;-66
2021/06/09 07:17:38;;;;;;;8.40;5.47;;;23.70;92.20;;;;;;5114736;28;20027;-66
2021/06/09 07:20:08;;;;;;;5.95;4.47;;;23.80;92.00;;;;;;5115652;28;20111;-67
2021/06/09 07:22:34;;;;;;;8.88;4.82;;;23.80;92.00;;;;;;5115211;27;20050;-69
2021/06/09 07:25:00;;;;;;;6.32;4.68;;;23.80;91.80;;;;;;5115309;28;20475;-70
2021/06/09 07:27:28;;;;;;;7.80;4.30;;;23.80;91.80;;;;;;5115673;28;20020;-69
2021/06/09 07:29:55;;;;;;;5.43;3.90;;;23.90;91.80;;;;;;5115697;28;20044;-68
2021/06/09 07:32:21;;;;;;;4.28;3.28;;;23.90;91.70;;;;;;5113587;28;20011;-67
2021/06/09 07:34:47;;;;;;;6.53;3.75;;;24.00;91.60;;;;;;5113277;28;20068;-67
2021/06/09 07:37:15;;;;;;;6.68;3.22;;;24.10;91.50;;;;;;5114051;28;20059;-66
2021/06/09 07:39:48;;;;;;;6.90;3.45;;;24.10;91.40;;;;;;5113593;28;20024;-67
2021/06/09 07:42:17;;;;;;;6.85;3.15;;;24.20;91.30;;;;;;5107298;28;20717;-66
2021/06/09 07:44:57;;;;;;;8.65;3.13;;;24.20;91.30;;;;;;5113979;28;20538;-65
2021/06/09 07:47:24;;;;;;;6.18;3.35;;;24.40;91.30;;;;;;5114846;28;20098;-65
2021/06/09 07:49:52;;;;;;;6.07;2.63;;;24.30;91.30;;;;;;5113394;28;20031;-65
2021/06/09 07:52:20;;;;;;;4.32;2.80;;;24.30;91.30;;;;;;5111635;28;20432;-66
2021/06/09 07:54:46;;;;;;;5.30;3.00;;;24.40;91.30;;;;;;5114832;27;20016;-65
2021/06/09 07:57:14;;;;;;;6.05;2.83;;;24.40;91.20;;;;;;5113847;28;20020;-64
2021/06/09 07:59:40;;;;;;;6.47;2.83;;;24.40;91.30;;;;;;5113293;27;20162;-65
2021/06/09 08:02:07;;;;;;;7.90;2.60;;;24.40;91.30;;;;;;5113365;28;20035;-65
2021/06/09 08:04:33;;;;;;;4.90;2.42;;;24.40;91.30;;;;;;5114323;28;20425;-66
2021/06/09 08:06:59;;;;;;;4.22;2.53;;;24.40;91.20;;;;;;5114522;28;20024;-67
2021/06/09 08:09:25;;;;;;;4.32;2.25;;;24.40;91.20;;;;;;5114401;28;20027;-69
2021/06/09 08:11:52;;;;;;;7.40;2.80;;;24.40;91.20;;;;;;5114034;28;20131;-67
2021/06/09 08:14:20;;;;;;;5.25;2.78;;;24.50;91.20;;;;;;5114434;28;20050;-66
2021/06/09 08:16:46;;;;;;;6.07;2.60;;;24.60;91.10;;;;;;5114062;28;20027;-67
2021/06/09 08:19:12;;;;;;;5.85;2.50;;;24.70;91.00;;;;;;5114151;28;20019;-67
2021/06/09 08:21:37;;;;;;;5.57;2.78;;;24.70;90.90;;;;;;5114116;28;20099;-68
2021/06/09 08:24:05;;;;;;;5.72;3.20;;;24.80;90.90;;;;;;5113857;28;20043;-67
2021/06/09 08:26:30;;;;;;;6.03;2.58;;;24.80;90.90;;;;;;5113492;28;20051;-66
2021/06/09 08:28:57;;;;;;;4.60;2.63;;;24.80;90.90;;;;;;5114254;28;20066;-64
2021/06/09 08:31:28;;;;;;;6.25;2.63;;;24.80;90.90;;;;;;5114353;28;20093;-65
2021/06/09 08:33:56;;;;;;;5.45;2.75;;;24.70;91.00;;;;;;5114285;28;20107;-65
2021/06/09 08:36:23;;;;;;;6.80;3.03;;;24.60;91.00;;;;;;5114059;27;20024;-64
2021/06/09 08:38:51;;;;;;;4.28;3.05;;;24.60;91.10;;;;;;5113870;28;20049;-66
2021/06/09 08:41:19;;;;;;;5.22;2.97;;;24.50;91.50;;;;;;5113783;27;20383;-65
2021/06/09 08:43:47;;;;;;;4.93;2.40;;;24.40;91.30;;;;;;5112792;27;20035;-63
2021/06/09 08:46:14;;;;;;;6.07;2.95;;;24.40;91.40;;;;;;5113589;28;20027;-65
2021/06/09 08:48:44;;;;;;;4.40;2.60;;;24.40;91.30;;;;;;5113610;28;20121;-65
2021/06/09 08:51:11;;;;;;;6.57;3.35;;;24.40;91.30;;;;;;5113525;28;20031;-65
2021/06/09 08:53:41;;;;;;;5.20;2.70;;;24.40;91.40;;;;;;5113471;28;20414;-65
2021/06/09 08:56:07;;;;;;;7.25;3.10;;;24.40;91.40;;;;;;5113762;28;20108;-65
2021/06/09 08:58:35;;;;;;;4.63;2.35;;;24.40;91.50;;;;;;5112884;28;20050;-65
2021/06/09 09:01:01;;;;;;;4.38;2.67;;;24.30;91.50;;;;;;5113182;28;20047;-67
2021/06/09 09:03:27;;;;;;;3.70;2.42;;;24.40;91.50;;;;;;5113232;28;20486;-65
2021/06/09 09:05:53;;;;;;;5.80;3.03;;;24.40;91.50;;;;;;5113651;28;20024;-65
2021/06/09 09:08:19;;;;;;;4.18;2.90;;;24.40;91.60;;;;;;5113377;28;20042;-65
2021/06/09 09:10:44;;;;;;;5.40;3.15;;;24.40;91.60;;;;;;5113038;28;20039;-64
2021/06/09 09:13:11;;;;;;;5.70;2.97;;;24.40;91.60;;;;;;5113356;28;20024;-66
2021/06/09 09:15:37;;;;;;;6.18;3.10;;;24.40;91.60;;;;;;5112864;28;20127;-65
2021/06/09 09:18:05;;;;;;;5.60;3.22;;;24.40;91.50;;;;;;5113009;28;20063;-64
2021/06/09 09:20:33;;;;;;;6.05;3.60;;;24.50;91.50;;;;;;5113153;28;20132;-65
2021/06/09 09:23:00;;;;;;;4.38;3.03;;;24.50;91.50;;;;;;5113097;28;20054;-65
2021/06/09 09:25:29;;;;;;;9.60;3.33;;;24.50;91.50;;;;;;5113415;28;20490;-65
2021/06/09 09:27:58;;;;;;;4.35;3.15;;;24.40;91.60;;;;;;5112957;28;20106;-65
2021/06/09 09:30:27;;;;;;;5.13;3.40;;;24.50;91.60;;;;;;5113340;28;20031;-66
2021/06/09 09:33:01;;;;;;;5.53;3.30;;;24.50;91.60;;;;;;5113234;27;20028;-64
2021/06/09 09:35:33;;;;;;;5.63;3.80;;;24.60;91.70;;;;;;5092723;28;20038;-65
2021/06/09 09:38:17;;;;;;;5.85;4.20;;;24.60;91.60;;;;;;5091469;28;20103;-65
2021/06/09 09:41:19;;;;;;;5.72;3.80;;;24.60;91.50;;;;;;5092249;28;20039;-65
2021/06/09 09:43:51;;;;;;;7.43;3.88;;;24.60;91.60;;;;;;5045432;28;20083;-65
2021/06/09 09:46:21;;;;;;;5.93;3.47;;;24.60;91.60;;;;;;5085559;28;20039;-65
2021/06/09 09:49:06;;;;;;;8.15;3.95;;;24.60;91.70;;;;;;5092149;28;20579;-65
2021/06/09 09:51:53;;;;;;;6.32;4.20;;;24.60;91.50;;;;;;5091902;28;20028;-65
2021/06/09 09:54:28;;;;;;;7.10;4.32;;;24.60;91.50;;;;;;5105891;28;20035;-64
2021/06/09 09:56:54;;;;;;;7.10;4.10;;;24.70;91.20;;;;;;5112953;28;20028;-64
2021/06/09 09:59:26;;;;;;;6.50;3.63;;;24.70;91.20;;;;;;5112160;28;20379;-65
2021/06/09 10:01:54;;;;;;;6.28;3.70;;;24.70;91.30;;;;;;5112248;28;20026;-67
2021/06/09 10:04:27;;;;;;;6.68;3.30;;;24.70;91.40;;;;;;5112477;28;20030;-65
2021/06/09 10:06:53;;;;;;;3.70;2.42;;;24.70;91.50;;;;;;5112708;28;20435;-65
2021/06/09 10:09:20;;;;;;;4.72;2.95;;;24.80;91.50;;;;;;5112325;28;20512;-65
2021/06/09 10:11:50;;;;;;;4.70;3.08;;;24.80;91.40;;;;;;5111802;28;20039;-66
2021/06/09 10:14:16;;;;;;;7.47;2.80;;;24.80;91.10;;;;;;5112101;28;20015;-65
2021/06/09 10:16:43;;;;;;;3.95;2.67;;;24.90;90.90;;;;;;5111769;28;20023;-65
2021/06/09 10:19:14;;;;;;;5.50;2.38;;;24.90;90.90;;;;;;5111012;28;20034;-67
2021/06/09 10:21:54;;;;;;;3.50;2.10;;;24.90;91.10;;;;;;5110777;28;20324;-65
2021/06/09 10:24:22;;;;;;;5.75;2.90;;;24.80;90.90;;;;;;5109901;28;20069;-65
2021/06/09 10:26:54;;;;;;;4.32;2.40;;;24.90;90.80;;;;;;5108722;27;20059;-64
2021/06/09 10:29:21;;;;;;;4.82;2.42;;;24.90;90.70;;;;;;5110573;28;20035;-66
2021/06/09 10:31:59;;;;;;;3.83;2.10;;;24.90;90.70;;;;;;5110443;28;20069;-66
2021/06/09 10:34:27;;;;;;;2.83;1.80;;;24.80;90.50;;;;;;5110863;28;20102;-66
2021/06/09 10:36:55;;;;;;;3.05;1.60;;;24.90;90.30;;;;;;5110849;28;20372;-67
2021/06/09 10:39:23;;;;;;;4.72;1.65;;;24.90;90.20;;;;;;5110625;28;20102;-67
2021/06/09 10:41:52;;;;;;;4.32;1.52;;;24.90;89.60;;;;;;5108103;28;20070;-64
2021/06/09 10:44:20;;;;;;;3.03;1.60;;;24.90;89.40;;;;;;5109949;28;20031;-67
2021/06/09 10:46:48;;;;;;;3.08;1.48;;;24.90;89.50;;;;;;5110218;28;20024;-66
2021/06/09 10:49:17;;;;;;;4.63;1.60;;;24.90;88.80;;;;;;5113666;28;20031;-67
2021/06/09 10:51:46;;;;;;;2.72;1.30;;;24.90;89.20;;;;;;5114611;28;20028;-67
2021/06/09 10:54:14;;;;;;;2.70;1.50;;;25.00;88.90;;;;;;5114727;28;20065;-65
2021/06/09 10:56:46;;;;;;;3.58;1.27;;;25.00;88.70;;;;;;5114550;28;20031;-66
2021/06/09 10:59:15;;;;;;;2.28;1.20;;;25.00;89.00;;;;;;5112406;28;20020;-68
2021/06/09 11:01:41;;;;;;;2.45;1.40;;;25.00;88.00;;;;;;5113790;28;20513;-64
2021/06/09 11:04:07;;;;;;;2.15;1.23;;;25.00;88.60;;;;;;5115703;28;20028;-65
2021/06/09 11:06:40;;;;;;;2.55;1.40;;;24.90;89.30;;;;;;5114830;28;20086;-65
2021/06/09 11:09:25;;;;;;;2.92;1.40;;;24.90;89.20;;;;;;5114364;28;20491;-67
2021/06/09 11:12:12;;;;;;;2.75;1.33;;;25.00;89.30;;;;;;5115628;28;20383;-65
2021/06/09 11:14:50;;;;;;;2.78;1.30;;;25.00;89.60;;;;;;5115408;28;20058;-65
2021/06/09 11:17:52;;;;;;;2.63;1.38;;;25.00;88.90;;;;;;5115767;28;20020;-64
2021/06/09 11:20:23;;;;;;;1.80;1.13;;;25.00;89.40;;;;;;5115051;28;20035;-67
2021/06/09 11:22:56;;;;;;;3.00;1.27;;;25.00;88.70;;;;;;5115487;28;20028;-65
2021/06/09 11:25:28;;;;;;;2.28;0.90;;;25.00;88.70;;;;;;5115567;28;20103;-65
2021/06/09 11:28:31;;;;;;;2.22;1.10;;;25.00;88.90;;;;;;5111378;28;20023;-65
2021/06/09 11:31:31;;;;;;;1.33;1.00;;;24.90;89.00;;;;;;5111630;28;20031;-65
2021/06/09 11:34:02;;;;;;;2.20;1.17;;;25.00;89.20;;;;;;5113504;28;20027;-63
2021/06/09 11:36:38;;;;;;;3.55;1.40;;;25.00;90.00;;;;;;5113560;28;20127;-63
2021/06/09 11:39:10;;;;;;;3.45;1.20;;;25.10;90.20;;;;;;5113708;28;20058;-65
2021/06/09 11:41:40;;;;;;;5.90;1.60;;;25.20;90.10;;;;;;5110844;28;20479;-65
2021/06/09 11:44:07;;;;;;;2.40;1.38;;;25.10;89.20;;;;;;5113918;28;20092;-66
2021/06/09 11:46:38;;;;;;;3.00;1.30;;;25.10;89.70;;;;;;5111398;28;20051;-65
2021/06/09 11:49:04;;;;;;;5.13;1.35;;;25.10;89.30;;;;;;5114683;28;20564;-64
2021/06/09 11:51:38;;;;;;;2.10;1.20;;;25.10;90.10;;;;;;5113639;28;20131;-64
2021/06/09 11:54:16;;;;;;;2.08;1.20;;;25.10;89.50;;;;;;5111957;28;20019;-64
2021/06/09 11:56:55;;;;;;;2.70;1.08;;;25.20;88.50;;;;;;5114856;28;20354;-64
2021/06/09 11:59:28;;;;;;;2.42;1.00;;;25.20;88.70;;;;;;5112229;28;20034;-64
2021/06/09 12:01:58;;;;;;;4.13;1.13;;;25.20;88.30;;;;;;5114598;28;20028;-65
2021/06/09 12:04:51;;;;;;;3.08;0.90;;;25.30;88.80;;;;;;5114607;28;20115;-66
2021/06/09 12:07:22;;;;;;;1.33;0.82;;;25.30;87.70;;;;;;5111521;28;20507;-64
2021/06/09 12:09:50;;;;;;;4.40;0.90;;;25.30;89.00;;;;;;5114220;28;20039;-64
2021/06/09 12:12:34;;;;;;;1.23;0.88;;;25.30;87.60;;;;;;5114386;28;20102;-66
2021/06/09 12:15:03;;;;;;;2.63;0.90;;;25.30;88.00;;;;;;5114677;28;20080;-65
2021/06/09 12:17:34;;;;;;;2.65;0.90;;;25.20;88.00;;;;;;5114330;28;20023;-64
2021/06/09 12:20:12;;;;;;;2.50;0.98;;;25.30;88.30;;;;;;5114226;28;20487;-65
2021/06/09 12:22:43;;;;;;;1.92;0.82;;;25.30;89.40;;;;;;5113833;28;20039;-65
2021/06/09 12:25:12;;;;;;;1.77;0.82;;;25.30;89.00;;;;;;5113815;28;20049;-65
2021/06/09 12:27:44;;;;;;;1.92;0.73;;;25.30;89.10;;;;;;5112651;28;20030;-65
2021/06/09 12:30:21;;;;;;;2.63;0.80;;;25.30;89.40;;;;;;5113509;28;20020;-67
2021/06/09 12:32:50;;;;;;;3.13;0.85;;;25.30;89.60;;;;;;5113854;28;20031;-64
2021/06/09 12:35:17;;;;;;;2.78;1.00;;;25.30;90.00;;;;;;5114050;28;20061;-65
2021/06/09 12:37:46;;;;;;;1.20;0.70;;;25.30;90.00;;;;;;5113650;28;20110;-64
2021/06/09 12:40:15;;;;;;;2.05;0.73;;;25.40;90.00;;;;;;5113895;28;20360;-65
2021/06/09 12:42:50;;;;;;;1.52;0.80;;;25.40;90.20;;;;;;5113998;28;20107;-65
2021/06/09 12:45:18;;;;;;;1.60;0.80;;;25.40;90.20;;;;;;5113827;28;20051;-66
2021/06/09 12:47:45;;;;;;;1.85;1.00;;;25.40;90.20;;;;;;5113861;28;20043;-67
2021/06/09 12:50:11;;;;;;;0.95;0.65;;;25.40;90.40;;;;;;5113681;28;20055;-64
2021/06/09 12:52:37;;;;;;;1.20;0.88;;;25.50;90.40;;;;;;5113631;28;20059;-64
2021/06/09 12:55:30;;;;;;;2.75;0.70;;;25.50;90.40;;;;;;5112970;28;20023;-65
2021/06/09 12:58:03;;;;;;;1.27;0.68;;;25.50;90.50;;;;;;5105300;28;20039;-68
2021/06/09 13:00:43;;;;;;;1.20;0.60;;;25.50;90.50;;;;;;5111185;28;20069;-66
2021/06/09 13:03:20;;;;;;;1.38;0.82;;;25.60;90.60;;;;;;5112752;28;20019;-67